sensor_id;sensor_type;location;lat;lon;timestamp;P1;durP1;ratioP1;P2;durP2;ratioP2
4323;SDS011;2175;51.018;6.994;2022-10-04T00:01:03;11.53;;;7.40;;
4323;SDS011;2175;51.018;6.994;2022-10-04T00:03:40;19.10;;;7.67;;
4323;SDS011;2175;51.018;6.994;2022-10-04T00:06:13;11.93;;;7.57;;
4323;SDS011;2175;51.018;6.994;2022-10-04T00:08:55;14.20;;;7.37;;
4323;SDS011;2175;51.018;6.994;2022-10-04T00:11:35;15.83;;;8.30;;
4323;SDS011;2175;51.018;6.994;2022-10-04T00:14:08;15.83;;;7.63;;
4323;SDS011;2175;51.018;6.994;2022-10-04T00:16:45;10.80;;;7.23;;
4323;SDS011;2175;51.018;6.994;2022-10-04T00:24:21;20.97;;;7.40;;
4323;SDS011;2175;51.018;6.994;2022-10-04T00:37:00;17.93;;;8.03;;
4323;SDS011;2175;51.018;6.994;2022-10-04T00:39:37;16.43;;;8.07;;
4323;SDS011;2175;51.018;6.994;2022-10-04T00:44:59;18.67;;;8.87;;
4323;SDS011;2175;51.018;6.994;2022-10-04T00:47:28;17.13;;;7.43;;
4323;SDS011;2175;51.018;6.994;2022-10-04T00:50:05;11.87;;;7.80;;
4323;SDS011;2175;51.018;6.994;2022-10-04T00:52:57;14.03;;;7.60;;
4323;SDS011;2175;51.018;6.994;2022-10-04T00:55:31;10.50;;;7.20;;
4323;SDS011;2175;51.018;6.994;2022-10-04T00:58:02;14.47;;;8.00;;
4323;SDS011;2175;51.018;6.994;2022-10-04T01:00:33;15.77;;;8.03;;
4323;SDS011;2175;51.018;6.994;2022-10-04T01:03:01;16.17;;;8.40;;
4323;SDS011;2175;51.018;6.994;2022-10-04T01:05:33;14.93;;;7.37;;
4323;SDS011;2175;51.018;6.994;2022-10-04T01:08:09;11.33;;;7.63;;
4323;SDS011;2175;51.018;6.994;2022-10-04T01:10:39;12.20;;;7.70;;
4323;SDS011;2175;51.018;6.994;2022-10-04T01:24:32;15.70;;;7.87;;
4323;SDS011;2175;51.018;6.994;2022-10-04T01:27:00;19.00;;;7.63;;
4323;SDS011;2175;51.018;6.994;2022-10-04T01:29:27;10.07;;;7.60;;
4323;SDS011;2175;51.018;6.994;2022-10-04T01:31:55;16.07;;;8.57;;
4323;SDS011;2175;51.018;6.994;2022-10-04T01:34:24;15.40;;;8.90;;
4323;SDS011;2175;51.018;6.994;2022-10-04T01:36:55;14.87;;;8.10;;
4323;SDS011;2175;51.018;6.994;2022-10-04T01:39:23;16.13;;;7.83;;
4323;SDS011;2175;51.018;6.994;2022-10-04T01:41:55;16.23;;;7.50;;
4323;SDS011;2175;51.018;6.994;2022-10-04T01:44:38;14.33;;;7.77;;
4323;SDS011;2175;51.018;6.994;2022-10-04T01:47:10;9.77;;;7.33;;
4323;SDS011;2175;51.018;6.994;2022-10-04T01:49:39;10.77;;;7.37;;
4323;SDS011;2175;51.018;6.994;2022-10-04T01:54:45;15.60;;;8.00;;
4323;SDS011;2175;51.018;6.994;2022-10-04T01:57:15;12.83;;;7.47;;
4323;SDS011;2175;51.018;6.994;2022-10-04T02:05:25;10.60;;;7.23;;
4323;SDS011;2175;51.018;6.994;2022-10-04T02:07:55;13.50;;;7.13;;
4323;SDS011;2175;51.018;6.994;2022-10-04T02:10:25;13.60;;;7.20;;
4323;SDS011;2175;51.018;6.994;2022-10-04T02:12:51;15.23;;;7.70;;
4323;SDS011;2175;51.018;6.994;2022-10-04T02:15:19;15.10;;;7.47;;
4323;SDS011;2175;51.018;6.994;2022-10-04T02:17:46;18.60;;;7.70;;
4323;SDS011;2175;51.018;6.994;2022-10-04T02:20:24;9.80;;;7.10;;
4323;SDS011;2175;51.018;6.994;2022-10-04T02:22:56;12.90;;;7.13;;
4323;SDS011;2175;51.018;6.994;2022-10-04T02:25:27;12.97;;;6.70;;
4323;SDS011;2175;51.018;6.994;2022-10-04T02:27:53;13.30;;;7.73;;
4323;SDS011;2175;51.018;6.994;2022-10-04T02:30:20;15.00;;;7.13;;
4323;SDS011;2175;51.018;6.994;2022-10-04T02:32:46;10.43;;;6.90;;
4323;SDS011;2175;51.018;6.994;2022-10-04T02:35:28;16.27;;;7.50;;
4323;SDS011;2175;51.018;6.994;2022-10-04T02:38:18;12.93;;;6.77;;
4323;SDS011;2175;51.018;6.994;2022-10-04T02:40:48;13.23;;;6.90;;
4323;SDS011;2175;51.018;6.994;2022-10-04T02:43:21;12.87;;;7.30;;
4323;SDS011;2175;51.018;6.994;2022-10-04T02:48:47;16.70;;;7.07;;
4323;SDS011;2175;51.018;6.994;2022-10-04T02:53:58;15.10;;;7.30;;
4323;SDS011;2175;51.018;6.994;2022-10-04T02:56:25;14.07;;;8.10;;
4323;SDS011;2175;51.018;6.994;2022-10-04T02:58:51;11.03;;;6.93;;
4323;SDS011;2175;51.018;6.994;2022-10-04T03:01:25;12.47;;;7.40;;
4323;SDS011;2175;51.018;6.994;2022-10-04T03:03:53;18.63;;;7.30;;
4323;SDS011;2175;51.018;6.994;2022-10-04T03:06:21;12.97;;;7.40;;
4323;SDS011;2175;51.018;6.994;2022-10-04T03:08:52;11.97;;;8.00;;
4323;SDS011;2175;51.018;6.994;2022-10-04T03:11:23;14.97;;;6.73;;
4323;SDS011;2175;51.018;6.994;2022-10-04T03:13:53;12.40;;;7.77;;
4323;SDS011;2175;51.018;6.994;2022-10-04T03:16:21;9.90;;;7.30;;
4323;SDS011;2175;51.018;6.994;2022-10-04T03:18:49;10.97;;;8.20;;
4323;SDS011;2175;51.018;6.994;2022-10-04T03:21:17;14.90;;;7.83;;
4323;SDS011;2175;51.018;6.994;2022-10-04T03:23:46;19.77;;;7.50;;
4323;SDS011;2175;51.018;6.994;2022-10-04T03:29:05;14.30;;;7.43;;
4323;SDS011;2175;51.018;6.994;2022-10-04T03:31:35;11.00;;;7.40;;
4323;SDS011;2175;51.018;6.994;2022-10-04T03:34:05;11.30;;;7.20;;
4323;SDS011;2175;51.018;6.994;2022-10-04T03:36:45;14.73;;;6.67;;
4323;SDS011;2175;51.018;6.994;2022-10-04T03:39:16;15.10;;;7.50;;
4323;SDS011;2175;51.018;6.994;2022-10-04T03:41:52;10.70;;;7.47;;
4323;SDS011;2175;51.018;6.994;2022-10-04T03:44:18;10.00;;;6.87;;
4323;SDS011;2175;51.018;6.994;2022-10-04T03:46:45;12.23;;;7.37;;
4323;SDS011;2175;51.018;6.994;2022-10-04T03:49:13;11.50;;;7.30;;
4323;SDS011;2175;51.018;6.994;2022-10-04T03:51:43;16.60;;;7.57;;
4323;SDS011;2175;51.018;6.994;2022-10-04T03:54:14;12.10;;;7.40;;
4323;SDS011;2175;51.018;6.994;2022-10-04T03:56:44;17.53;;;7.00;;
4323;SDS011;2175;51.018;6.994;2022-10-04T03:59:13;9.93;;;7.20;;
4323;SDS011;2175;51.018;6.994;2022-10-04T04:01:49;13.93;;;6.80;;
4323;SDS011;2175;51.018;6.994;2022-10-04T04:07:09;14.87;;;8.03;;
4323;SDS011;2175;51.018;6.994;2022-10-04T04:10:03;11.13;;;6.83;;
4323;SDS011;2175;51.018;6.994;2022-10-04T04:12:39;14.93;;;6.73;;
4323;SDS011;2175;51.018;6.994;2022-10-04T04:15:11;10.57;;;7.37;;
4323;SDS011;2175;51.018;6.994;2022-10-04T04:17:39;14.00;;;7.43;;
4323;SDS011;2175;51.018;6.994;2022-10-04T04:20:20;12.17;;;8.30;;
4323;SDS011;2175;51.018;6.994;2022-10-04T04:25:57;15.17;;;7.00;;
4323;SDS011;2175;51.018;6.994;2022-10-04T04:28:39;13.70;;;7.43;;
4323;SDS011;2175;51.018;6.994;2022-10-04T04:31:20;12.50;;;7.33;;
4323;SDS011;2175;51.018;6.994;2022-10-04T04:33:57;11.97;;;6.90;;
4323;SDS011;2175;51.018;6.994;2022-10-04T04:36:28;11.10;;;6.40;;
4323;SDS011;2175;51.018;6.994;2022-10-04T04:42:02;12.00;;;7.37;;
4323;SDS011;2175;51.018;6.994;2022-10-04T04:44:38;16.83;;;7.50;;
4323;SDS011;2175;51.018;6.994;2022-10-04T04:47:27;14.93;;;7.27;;
4323;SDS011;2175;51.018;6.994;2022-10-04T04:50:06;11.20;;;7.23;;
4323;SDS011;2175;51.018;6.994;2022-10-04T04:52:40;10.90;;;6.63;;
4323;SDS011;2175;51.018;6.994;2022-10-04T04:55:14;16.17;;;7.57;;
4323;SDS011;2175;51.018;6.994;2022-10-04T04:57:43;11.00;;;7.10;;
4323;SDS011;2175;51.018;6.994;2022-10-04T05:00:15;11.63;;;7.50;;
4323;SDS011;2175;51.018;6.994;2022-10-04T05:02:51;14.23;;;7.87;;
4323;SDS011;2175;51.018;6.994;2022-10-04T05:07:49;13.50;;;7.70;;
4323;SDS011;2175;51.018;6.994;2022-10-04T05:10:33;16.63;;;8.10;;
4323;SDS011;2175;51.018;6.994;2022-10-04T05:12:59;15.20;;;8.33;;
4323;SDS011;2175;51.018;6.994;2022-10-04T05:15:27;13.50;;;7.47;;
4323;SDS011;2175;51.018;6.994;2022-10-04T05:17:58;14.70;;;8.43;;
4323;SDS011;2175;51.018;6.994;2022-10-04T05:20:25;12.10;;;7.20;;
4323;SDS011;2175;51.018;6.994;2022-10-04T05:22:51;13.13;;;7.70;;
4323;SDS011;2175;51.018;6.994;2022-10-04T05:25:23;12.63;;;7.53;;
4323;SDS011;2175;51.018;6.994;2022-10-04T05:27:53;13.30;;;8.30;;
4323;SDS011;2175;51.018;6.994;2022-10-04T05:33:13;22.73;;;9.03;;
4323;SDS011;2175;51.018;6.994;2022-10-04T05:35:56;17.83;;;8.73;;
4323;SDS011;2175;51.018;6.994;2022-10-04T05:41:02;17.83;;;8.50;;
4323;SDS011;2175;51.018;6.994;2022-10-04T05:43:46;13.47;;;8.30;;
4323;SDS011;2175;51.018;6.994;2022-10-04T05:49:06;18.60;;;8.77;;
4323;SDS011;2175;51.018;6.994;2022-10-04T05:51:47;18.30;;;8.30;;
4323;SDS011;2175;51.018;6.994;2022-10-04T05:54:26;14.70;;;7.90;;
4323;SDS011;2175;51.018;6.994;2022-10-04T06:05:12;7.70;;;6.80;;
4323;SDS011;2175;51.018;6.994;2022-10-04T06:10:48;12.47;;;7.57;;
4323;SDS011;2175;51.018;6.994;2022-10-04T06:24:33;16.03;;;7.90;;
4323;SDS011;2175;51.018;6.994;2022-10-04T06:27:03;18.03;;;8.80;;
4323;SDS011;2175;51.018;6.994;2022-10-04T06:29:54;12.60;;;7.47;;
4323;SDS011;2175;51.018;6.994;2022-10-04T06:35:44;18.77;;;9.40;;
4323;SDS011;2175;51.018;6.994;2022-10-04T06:38:59;14.67;;;8.23;;
4323;SDS011;2175;51.018;6.994;2022-10-04T06:41:41;14.77;;;8.97;;
4323;SDS011;2175;51.018;6.994;2022-10-04T06:44:34;15.37;;;9.13;;
4323;SDS011;2175;51.018;6.994;2022-10-04T07:01:38;20.03;;;8.67;;
4323;SDS011;2175;51.018;6.994;2022-10-04T07:04:22;14.67;;;9.10;;
4323;SDS011;2175;51.018;6.994;2022-10-04T07:07:21;14.67;;;9.40;;
4323;SDS011;2175;51.018;6.994;2022-10-04T07:12:41;15.87;;;9.47;;
4323;SDS011;2175;51.018;6.994;2022-10-04T07:15:16;15.90;;;8.80;;
4323;SDS011;2175;51.018;6.994;2022-10-04T07:17:46;13.47;;;9.07;;
4323;SDS011;2175;51.018;6.994;2022-10-04T07:20:17;16.73;;;9.23;;
4323;SDS011;2175;51.018;6.994;2022-10-04T07:23:00;16.83;;;9.57;;
4323;SDS011;2175;51.018;6.994;2022-10-04T07:25:41;14.97;;;9.00;;
4323;SDS011;2175;51.018;6.994;2022-10-04T07:28:14;15.30;;;9.93;;
4323;SDS011;2175;51.018;6.994;2022-10-04T07:31:02;21.40;;;8.37;;
4323;SDS011;2175;51.018;6.994;2022-10-04T07:33:42;13.10;;;9.50;;
4323;SDS011;2175;51.018;6.994;2022-10-04T07:36:12;19.13;;;9.60;;
4323;SDS011;2175;51.018;6.994;2022-10-04T07:38:50;23.70;;;9.77;;
4323;SDS011;2175;51.018;6.994;2022-10-04T07:44:02;13.23;;;8.33;;
4323;SDS011;2175;51.018;6.994;2022-10-04T07:46:38;15.30;;;9.30;;
4323;SDS011;2175;51.018;6.994;2022-10-04T07:49:23;15.83;;;8.77;;
4323;SDS011;2175;51.018;6.994;2022-10-04T07:54:49;18.93;;;9.37;;
4323;SDS011;2175;51.018;6.994;2022-10-04T08:05:22;16.43;;;9.10;;
4323;SDS011;2175;51.018;6.994;2022-10-04T08:14:03;15.77;;;8.83;;
4323;SDS011;2175;51.018;6.994;2022-10-04T08:25:21;12.23;;;7.30;;
4323;SDS011;2175;51.018;6.994;2022-10-04T08:38:58;13.30;;;7.80;;
4323;SDS011;2175;51.018;6.994;2022-10-04T08:43:57;17.70;;;7.10;;
4323;SDS011;2175;51.018;6.994;2022-10-04T08:52:54;14.97;;;7.43;;
4323;SDS011;2175;51.018;6.994;2022-10-04T09:09:28;12.67;;;7.43;;
4323;SDS011;2175;51.018;6.994;2022-10-04T09:15:00;10.63;;;5.47;;
4323;SDS011;2175;51.018;6.994;2022-10-04T09:20:20;13.13;;;6.03;;
4323;SDS011;2175;51.018;6.994;2022-10-04T09:31:21;7.50;;;5.00;;
4323;SDS011;2175;51.018;6.994;2022-10-04T09:39:34;11.87;;;5.83;;
4323;SDS011;2175;51.018;6.994;2022-10-04T09:45:10;8.50;;;5.43;;
4323;SDS011;2175;51.018;6.994;2022-10-04T09:53:49;10.87;;;5.10;;
4323;SDS011;2175;51.018;6.994;2022-10-04T09:56:49;10.47;;;5.07;;
4323;SDS011;2175;51.018;6.994;2022-10-04T10:08:08;13.90;;;5.03;;
4323;SDS011;2175;51.018;6.994;2022-10-04T10:11:13;9.20;;;5.60;;
4323;SDS011;2175;51.018;6.994;2022-10-04T10:28:50;9.47;;;5.10;;
4323;SDS011;2175;51.018;6.994;2022-10-04T10:37:15;7.50;;;4.90;;
4323;SDS011;2175;51.018;6.994;2022-10-04T10:45:53;9.80;;;5.20;;
4323;SDS011;2175;51.018;6.994;2022-10-04T10:51:12;7.37;;;5.00;;
4323;SDS011;2175;51.018;6.994;2022-10-04T10:53:59;9.67;;;5.13;;
4323;SDS011;2175;51.018;6.994;2022-10-04T11:16:16;6.70;;;4.50;;
4323;SDS011;2175;51.018;6.994;2022-10-04T11:25:02;8.80;;;4.50;;
4323;SDS011;2175;51.018;6.994;2022-10-04T11:28:04;7.93;;;5.10;;
4323;SDS011;2175;51.018;6.994;2022-10-04T11:36:37;13.63;;;4.60;;
4323;SDS011;2175;51.018;6.994;2022-10-04T11:50:48;9.50;;;5.07;;
4323;SDS011;2175;51.018;6.994;2022-10-04T11:54:00;12.83;;;5.40;;
4323;SDS011;2175;51.018;6.994;2022-10-04T11:59:28;9.77;;;4.73;;
4323;SDS011;2175;51.018;6.994;2022-10-04T12:10:28;9.57;;;5.37;;
4323;SDS011;2175;51.018;6.994;2022-10-04T12:26:54;10.57;;;4.67;;
4323;SDS011;2175;51.018;6.994;2022-10-04T12:32:23;11.60;;;4.90;;
4323;SDS011;2175;51.018;6.994;2022-10-04T12:38:02;7.70;;;4.47;;
4323;SDS011;2175;51.018;6.994;2022-10-04T12:40:49;7.13;;;4.13;;
4323;SDS011;2175;51.018;6.994;2022-10-04T12:43:55;7.23;;;4.40;;
4323;SDS011;2175;51.018;6.994;2022-10-04T12:49:54;9.10;;;4.20;;
4323;SDS011;2175;51.018;6.994;2022-10-04T13:00:58;8.70;;;4.50;;
4323;SDS011;2175;51.018;6.994;2022-10-04T13:06:20;10.83;;;4.63;;
4323;SDS011;2175;51.018;6.994;2022-10-04T13:14:39;6.77;;;3.83;;
4323;SDS011;2175;51.018;6.994;2022-10-04T13:19:53;9.63;;;4.10;;
4323;SDS011;2175;51.018;6.994;2022-10-04T13:22:28;7.60;;;4.03;;
4323;SDS011;2175;51.018;6.994;2022-10-04T13:30:15;6.60;;;3.80;;
4323;SDS011;2175;51.018;6.994;2022-10-04T13:35:33;8.07;;;5.30;;
4323;SDS011;2175;51.018;6.994;2022-10-04T13:46:30;6.40;;;4.17;;
4323;SDS011;2175;51.018;6.994;2022-10-04T13:50:11;12.40;;;4.30;;
4323;SDS011;2175;51.018;6.994;2022-10-04T14:24:00;6.23;;;4.00;;
4323;SDS011;2175;51.018;6.994;2022-10-04T14:48:52;10.03;;;3.70;;
4323;SDS011;2175;51.018;6.994;2022-10-04T15:00:23;8.20;;;4.00;;
4323;SDS011;2175;51.018;6.994;2022-10-04T15:17:10;5.20;;;3.50;;
4323;SDS011;2175;51.018;6.994;2022-10-04T15:20:32;7.87;;;4.37;;
4323;SDS011;2175;51.018;6.994;2022-10-04T15:22:45;6.23;;;3.63;;
4323;SDS011;2175;51.018;6.994;2022-10-04T15:28:11;5.83;;;4.00;;
4323;SDS011;2175;51.018;6.994;2022-10-04T15:42:12;6.17;;;3.80;;
4323;SDS011;2175;51.018;6.994;2022-10-04T15:44:58;9.30;;;4.00;;
4323;SDS011;2175;51.018;6.994;2022-10-04T16:21:02;5.53;;;3.97;;
4323;SDS011;2175;51.018;6.994;2022-10-04T16:23:43;6.53;;;4.37;;
4323;SDS011;2175;51.018;6.994;2022-10-04T16:26:11;8.80;;;5.00;;
4323;SDS011;2175;51.018;6.994;2022-10-04T16:29:04;7.10;;;4.17;;
4323;SDS011;2175;51.018;6.994;2022-10-04T16:31:56;7.90;;;4.33;;
4323;SDS011;2175;51.018;6.994;2022-10-04T16:39:36;10.83;;;5.20;;
4323;SDS011;2175;51.018;6.994;2022-10-04T16:48:20;15.00;;;4.67;;
4323;SDS011;2175;51.018;6.994;2022-10-04T16:51:02;10.10;;;4.93;;
4323;SDS011;2175;51.018;6.994;2022-10-04T16:56:25;6.63;;;4.77;;
4323;SDS011;2175;51.018;6.994;2022-10-04T16:58:58;8.70;;;5.40;;
4323;SDS011;2175;51.018;6.994;2022-10-04T17:15:45;12.90;;;5.87;;
4323;SDS011;2175;51.018;6.994;2022-10-04T17:18:25;8.80;;;5.27;;
4323;SDS011;2175;51.018;6.994;2022-10-04T17:21:49;10.90;;;5.30;;
4323;SDS011;2175;51.018;6.994;2022-10-04T17:24:42;8.23;;;5.13;;
4323;SDS011;2175;51.018;6.994;2022-10-04T17:27:40;12.70;;;5.50;;
4323;SDS011;2175;51.018;6.994;2022-10-04T17:38:34;6.90;;;5.43;;
4323;SDS011;2175;51.018;6.994;2022-10-04T17:46:44;8.53;;;5.40;;
4323;SDS011;2175;51.018;6.994;2022-10-04T17:49:26;12.23;;;5.90;;
4323;SDS011;2175;51.018;6.994;2022-10-04T17:52:14;9.37;;;5.70;;
4323;SDS011;2175;51.018;6.994;2022-10-04T17:55:09;9.80;;;6.20;;
4323;SDS011;2175;51.018;6.994;2022-10-04T17:57:44;11.77;;;7.33;;
4323;SDS011;2175;51.018;6.994;2022-10-04T18:00:20;11.90;;;7.07;;
4323;SDS011;2175;51.018;6.994;2022-10-04T18:02:50;13.07;;;7.33;;
4323;SDS011;2175;51.018;6.994;2022-10-04T18:08:00;10.70;;;6.57;;
4323;SDS011;2175;51.018;6.994;2022-10-04T18:10:38;12.43;;;5.97;;
4323;SDS011;2175;51.018;6.994;2022-10-04T18:15:42;13.40;;;6.40;;
4323;SDS011;2175;51.018;6.994;2022-10-04T18:18:18;13.33;;;7.93;;
4323;SDS011;2175;51.018;6.994;2022-10-04T18:23:28;8.80;;;7.23;;
4323;SDS011;2175;51.018;6.994;2022-10-04T18:25:57;13.70;;;6.63;;
4323;SDS011;2175;51.018;6.994;2022-10-04T18:28:27;11.93;;;6.70;;
4323;SDS011;2175;51.018;6.994;2022-10-04T18:30:57;13.97;;;6.83;;
4323;SDS011;2175;51.018;6.994;2022-10-04T18:36:19;9.43;;;6.30;;
4323;SDS011;2175;51.018;6.994;2022-10-04T18:39:49;10.10;;;7.00;;
4323;SDS011;2175;51.018;6.994;2022-10-04T18:44:43;14.53;;;7.27;;
4323;SDS011;2175;51.018;6.994;2022-10-04T18:47:14;11.53;;;6.70;;
4323;SDS011;2175;51.018;6.994;2022-10-04T18:49:50;15.47;;;6.43;;
4323;SDS011;2175;51.018;6.994;2022-10-04T18:53:01;10.10;;;6.10;;
4323;SDS011;2175;51.018;6.994;2022-10-04T18:55:40;13.23;;;6.50;;
4323;SDS011;2175;51.018;6.994;2022-10-04T19:01:22;11.27;;;6.60;;
4323;SDS011;2175;51.018;6.994;2022-10-04T19:04:28;9.00;;;5.90;;
4323;SDS011;2175;51.018;6.994;2022-10-04T19:07:20;10.90;;;6.53;;
4323;SDS011;2175;51.018;6.994;2022-10-04T19:12:31;17.43;;;6.17;;
4323;SDS011;2175;51.018;6.994;2022-10-04T19:18:22;9.07;;;6.33;;
4323;SDS011;2175;51.018;6.994;2022-10-04T19:21:10;14.80;;;6.20;;
4323;SDS011;2175;51.018;6.994;2022-10-04T19:24:06;15.53;;;7.10;;
4323;SDS011;2175;51.018;6.994;2022-10-04T19:26:43;11.77;;;6.60;;
4323;SDS011;2175;51.018;6.994;2022-10-04T19:29:22;8.27;;;6.13;;
4323;SDS011;2175;51.018;6.994;2022-10-04T19:32:12;11.10;;;6.97;;
4323;SDS011;2175;51.018;6.994;2022-10-04T19:43:13;14.40;;;6.63;;
4323;SDS011;2175;51.018;6.994;2022-10-04T19:48:32;15.90;;;7.43;;
4323;SDS011;2175;51.018;6.994;2022-10-04T19:51:07;10.50;;;7.40;;
4323;SDS011;2175;51.018;6.994;2022-10-04T19:53:40;11.40;;;6.93;;
4323;SDS011;2175;51.018;6.994;2022-10-04T19:56:13;14.50;;;7.17;;
4323;SDS011;2175;51.018;6.994;2022-10-04T20:01:18;14.30;;;7.80;;
4323;SDS011;2175;51.018;6.994;2022-10-04T20:03:47;14.00;;;8.03;;
4323;SDS011;2175;51.018;6.994;2022-10-04T20:06:36;10.20;;;6.80;;
4323;SDS011;2175;51.018;6.994;2022-10-04T20:17:41;22.80;;;7.10;;
4323;SDS011;2175;51.018;6.994;2022-10-04T20:20:09;12.90;;;6.40;;
4323;SDS011;2175;51.018;6.994;2022-10-04T20:25:42;15.47;;;6.80;;
4323;SDS011;2175;51.018;6.994;2022-10-04T20:28:09;13.00;;;7.00;;
4323;SDS011;2175;51.018;6.994;2022-10-04T20:31:02;11.50;;;6.77;;
4323;SDS011;2175;51.018;6.994;2022-10-04T20:49:53;11.30;;;6.67;;
4323;SDS011;2175;51.018;6.994;2022-10-04T20:52:30;11.90;;;7.50;;
4323;SDS011;2175;51.018;6.994;2022-10-04T20:54:59;14.70;;;7.10;;
4323;SDS011;2175;51.018;6.994;2022-10-04T20:57:30;18.33;;;6.80;;
4323;SDS011;2175;51.018;6.994;2022-10-04T20:59:56;10.37;;;6.70;;
4323;SDS011;2175;51.018;6.994;2022-10-04T21:02:23;11.97;;;6.73;;
4323;SDS011;2175;51.018;6.994;2022-10-04T21:04:52;14.90;;;6.83;;
4323;SDS011;2175;51.018;6.994;2022-10-04T21:07:18;11.00;;;6.53;;
4323;SDS011;2175;51.018;6.994;2022-10-04T21:09:45;8.30;;;5.80;;
4323;SDS011;2175;51.018;6.994;2022-10-04T21:15:00;11.33;;;6.57;;
4323;SDS011;2175;51.018;6.994;2022-10-04T21:19:54;10.77;;;6.83;;
4323;SDS011;2175;51.018;6.994;2022-10-04T21:27:26;11.07;;;7.00;;
4323;SDS011;2175;51.018;6.994;2022-10-04T21:29:54;11.00;;;7.47;;
4323;SDS011;2175;51.018;6.994;2022-10-04T21:32:21;17.40;;;7.10;;
4323;SDS011;2175;51.018;6.994;2022-10-04T21:34:48;12.07;;;7.33;;
4323;SDS011;2175;51.018;6.994;2022-10-04T21:37:14;11.47;;;7.30;;
4323;SDS011;2175;51.018;6.994;2022-10-04T21:39:40;13.20;;;7.90;;
4323;SDS011;2175;51.018;6.994;2022-10-04T21:42:06;12.53;;;7.90;;
4323;SDS011;2175;51.018;6.994;2022-10-04T21:44:32;15.63;;;8.33;;
4323;SDS011;2175;51.018;6.994;2022-10-04T21:46:57;11.57;;;7.93;;
4323;SDS011;2175;51.018;6.994;2022-10-04T21:49:23;14.30;;;9.63;;
4323;SDS011;2175;51.018;6.994;2022-10-04T21:51:49;13.53;;;8.37;;
4323;SDS011;2175;51.018;6.994;2022-10-04T21:54:14;15.80;;;9.03;;
4323;SDS011;2175;51.018;6.994;2022-10-04T21:56:40;14.20;;;8.60;;
4323;SDS011;2175;51.018;6.994;2022-10-04T21:59:05;12.87;;;8.67;;
4323;SDS011;2175;51.018;6.994;2022-10-04T22:01:31;15.40;;;7.87;;
4323;SDS011;2175;51.018;6.994;2022-10-04T22:03:57;15.30;;;8.60;;
4323;SDS011;2175;51.018;6.994;2022-10-04T22:06:22;13.83;;;7.43;;
4323;SDS011;2175;51.018;6.994;2022-10-04T22:08:48;13.03;;;7.37;;
4323;SDS011;2175;51.018;6.994;2022-10-04T22:11:14;13.07;;;8.03;;
4323;SDS011;2175;51.018;6.994;2022-10-04T22:13:39;12.70;;;8.53;;
4323;SDS011;2175;51.018;6.994;2022-10-04T22:16:05;12.40;;;8.03;;
4323;SDS011;2175;51.018;6.994;2022-10-04T22:18:31;9.33;;;6.67;;
4323;SDS011;2175;51.018;6.994;2022-10-04T22:20:57;10.90;;;7.87;;
4323;SDS011;2175;51.018;6.994;2022-10-04T22:23:24;12.60;;;7.47;;
4323;SDS011;2175;51.018;6.994;2022-10-04T22:25:51;13.53;;;7.90;;
4323;SDS011;2175;51.018;6.994;2022-10-04T22:28:22;15.27;;;7.87;;
4323;SDS011;2175;51.018;6.994;2022-10-04T22:30:50;16.00;;;8.13;;
4323;SDS011;2175;51.018;6.994;2022-10-04T22:33:23;12.17;;;7.73;;
4323;SDS011;2175;51.018;6.994;2022-10-04T22:41:33;13.17;;;8.40;;
4323;SDS011;2175;51.018;6.994;2022-10-04T22:44:05;9.40;;;7.13;;
4323;SDS011;2175;51.018;6.994;2022-10-04T22:46:52;13.33;;;7.70;;
4323;SDS011;2175;51.018;6.994;2022-10-04T22:49:20;12.40;;;7.57;;
4323;SDS011;2175;51.018;6.994;2022-10-04T22:51:48;10.30;;;7.70;;
4323;SDS011;2175;51.018;6.994;2022-10-04T22:54:17;10.60;;;7.50;;
4323;SDS011;2175;51.018;6.994;2022-10-04T22:56:44;12.00;;;7.70;;
4323;SDS011;2175;51.018;6.994;2022-10-04T22:59:10;11.00;;;7.90;;
4323;SDS011;2175;51.018;6.994;2022-10-04T23:01:38;14.60;;;7.50;;
4323;SDS011;2175;51.018;6.994;2022-10-04T23:04:10;10.70;;;7.33;;
4323;SDS011;2175;51.018;6.994;2022-10-04T23:06:40;12.10;;;8.17;;
4323;SDS011;2175;51.018;6.994;2022-10-04T23:09:06;18.33;;;8.53;;
4323;SDS011;2175;51.018;6.994;2022-10-04T23:11:31;14.70;;;7.70;;
4323;SDS011;2175;51.018;6.994;2022-10-04T23:13:57;13.87;;;8.93;;
4323;SDS011;2175;51.018;6.994;2022-10-04T23:16:23;10.47;;;7.83;;
4323;SDS011;2175;51.018;6.994;2022-10-04T23:18:49;11.43;;;7.83;;
4323;SDS011;2175;51.018;6.994;2022-10-04T23:21:23;12.70;;;7.90;;
4323;SDS011;2175;51.018;6.994;2022-10-04T23:23:50;13.27;;;8.27;;
4323;SDS011;2175;51.018;6.994;2022-10-04T23:26:23;11.13;;;8.63;;
4323;SDS011;2175;51.018;6.994;2022-10-04T23:29:05;13.83;;;7.57;;
4323;SDS011;2175;51.018;6.994;2022-10-04T23:31:31;11.00;;;7.43;;
4323;SDS011;2175;51.018;6.994;2022-10-04T23:33:56;15.40;;;8.23;;
4323;SDS011;2175;51.018;6.994;2022-10-04T23:36:22;12.70;;;7.63;;
4323;SDS011;2175;51.018;6.994;2022-10-04T23:38:48;19.33;;;7.90;;
4323;SDS011;2175;51.018;6.994;2022-10-04T23:41:21;14.00;;;7.87;;
4323;SDS011;2175;51.018;6.994;2022-10-04T23:43:47;11.23;;;7.10;;
4323;SDS011;2175;51.018;6.994;2022-10-04T23:46:14;15.10;;;9.20;;
4323;SDS011;2175;51.018;6.994;2022-10-04T23:48:43;13.67;;;8.40;;
4323;SDS011;2175;51.018;6.994;2022-10-04T23:51:13;14.40;;;8.40;;
4323;SDS011;2175;51.018;6.994;2022-10-04T23:53:42;11.77;;;7.33;;
4323;SDS011;2175;51.018;6.994;2022-10-04T23:56:25;13.87;;;8.43;;
4323;SDS011;2175;51.018;6.994;2022-10-04T23:58:53;11.37;;;8.40;;
